sensor_id;sensor_type;location;lat;lon;timestamp;temperature;humidity
58582;DHT22;44361;51.476;5.700;2024-03-06T00:00:34;3.90;99.90
58582;DHT22;44361;51.476;5.700;2024-03-06T00:03:00;3.90;99.90
58582;DHT22;44361;51.476;5.700;2024-03-06T00:05:26;3.90;99.90
58582;DHT22;44361;51.476;5.700;2024-03-06T00:07:51;3.80;99.90
58582;DHT22;44361;51.476;5.700;2024-03-06T00:10:17;3.80;99.90
58582;DHT22;44361;51.476;5.700;2024-03-06T00:12:42;3.80;99.90
58582;DHT22;44361;51.476;5.700;2024-03-06T00:15:08;3.90;99.90
58582;DHT22;44361;51.476;5.700;2024-03-06T00:17:34;4.00;99.90
58582;DHT22;44361;51.476;5.700;2024-03-06T00:19:59;4.10;99.90
58582;DHT22;44361;51.476;5.700;2024-03-06T00:22:25;4.20;99.90
58582;DHT22;44361;51.476;5.700;2024-03-06T00:24:51;4.20;99.90
58582;DHT22;44361;51.476;5.700;2024-03-06T00:27:17;4.30;99.90
58582;DHT22;44361;51.476;5.700;2024-03-06T00:29:42;4.40;99.90
58582;DHT22;44361;51.476;5.700;2024-03-06T00:32:08;4.40;99.90
58582;DHT22;44361;51.476;5.700;2024-03-06T00:34:33;4.40;99.90
58582;DHT22;44361;51.476;5.700;2024-03-06T00:36:59;4.40;99.90
58582;DHT22;44361;51.476;5.700;2024-03-06T00:39:24;4.40;99.90
58582;DHT22;44361;51.476;5.700;2024-03-06T00:41:50;4.50;99.90
58582;DHT22;44361;51.476;5.700;2024-03-06T00:44:16;4.50;99.90
58582;DHT22;44361;51.476;5.700;2024-03-06T00:46:42;4.40;99.90
58582;DHT22;44361;51.476;5.700;2024-03-06T00:49:08;4.50;99.90
58582;DHT22;44361;51.476;5.700;2024-03-06T00:51:34;4.50;99.90
58582;DHT22;44361;51.476;5.700;2024-03-06T00:54:02;4.50;99.90
58582;DHT22;44361;51.476;5.700;2024-03-06T00:56:28;4.40;99.90
58582;DHT22;44361;51.476;5.700;2024-03-06T00:58:53;4.40;99.90
58582;DHT22;44361;51.476;5.700;2024-03-06T01:01:19;4.30;99.90
58582;DHT22;44361;51.476;5.700;2024-03-06T01:03:45;4.30;99.90
58582;DHT22;44361;51.476;5.700;2024-03-06T01:06:10;4.20;99.90
58582;DHT22;44361;51.476;5.700;2024-03-06T01:08:36;4.20;99.90
58582;DHT22;44361;51.476;5.700;2024-03-06T01:11:02;4.10;99.90
58582;DHT22;44361;51.476;5.700;2024-03-06T01:13:29;4.00;99.90
58582;DHT22;44361;51.476;5.700;2024-03-06T01:15:55;3.90;99.90
58582;DHT22;44361;51.476;5.700;2024-03-06T01:18:21;3.90;99.90
58582;DHT22;44361;51.476;5.700;2024-03-06T01:20:46;3.80;99.90
58582;DHT22;44361;51.476;5.700;2024-03-06T01:23:12;3.70;99.90
58582;DHT22;44361;51.476;5.700;2024-03-06T01:25:37;3.70;99.90
58582;DHT22;44361;51.476;5.700;2024-03-06T01:28:03;3.60;99.90
58582;DHT22;44361;51.476;5.700;2024-03-06T01:30:29;3.60;99.90
58582;DHT22;44361;51.476;5.700;2024-03-06T01:32:54;3.50;99.90
58582;DHT22;44361;51.476;5.700;2024-03-06T01:35:20;3.50;99.90
58582;DHT22;44361;51.476;5.700;2024-03-06T01:37:45;3.50;99.90
58582;DHT22;44361;51.476;5.700;2024-03-06T01:40:11;3.50;99.90
58582;DHT22;44361;51.476;5.700;2024-03-06T01:42:37;3.50;99.90
58582;DHT22;44361;51.476;5.700;2024-03-06T01:45:03;3.40;99.90
58582;DHT22;44361;51.476;5.700;2024-03-06T01:47:29;3.40;99.90
58582;DHT22;44361;51.476;5.700;2024-03-06T01:49:55;3.50;99.90
58582;DHT22;44361;51.476;5.700;2024-03-06T01:52:21;3.50;99.90
58582;DHT22;44361;51.476;5.700;2024-03-06T01:54:48;3.40;99.90
58582;DHT22;44361;51.476;5.700;2024-03-06T01:57:15;3.50;99.90
58582;DHT22;44361;51.476;5.700;2024-03-06T01:59:42;3.30;99.90
58582;DHT22;44361;51.476;5.700;2024-03-06T02:02:08;3.40;99.90
58582;DHT22;44361;51.476;5.700;2024-03-06T02:04:37;3.30;99.90
58582;DHT22;44361;51.476;5.700;2024-03-06T02:07:02;3.20;99.90
58582;DHT22;44361;51.476;5.700;2024-03-06T02:09:28;3.20;99.90
58582;DHT22;44361;51.476;5.700;2024-03-06T02:11:54;3.10;99.90
58582;DHT22;44361;51.476;5.700;2024-03-06T02:14:19;3.00;99.90
58582;DHT22;44361;51.476;5.700;2024-03-06T02:16:45;3.10;99.90
58582;DHT22;44361;51.476;5.700;2024-03-06T02:19:10;3.10;99.90
58582;DHT22;44361;51.476;5.700;2024-03-06T02:21:36;3.10;99.90
58582;DHT22;44361;51.476;5.700;2024-03-06T02:24:02;3.00;99.90
58582;DHT22;44361;51.476;5.700;2024-03-06T02:26:28;3.00;99.90
58582;DHT22;44361;51.476;5.700;2024-03-06T02:28:54;3.00;99.90
58582;DHT22;44361;51.476;5.700;2024-03-06T02:31:20;3.00;99.90
58582;DHT22;44361;51.476;5.700;2024-03-06T02:33:47;3.00;99.90
58582;DHT22;44361;51.476;5.700;2024-03-06T02:36:19;2.90;99.90
58582;DHT22;44361;51.476;5.700;2024-03-06T02:38:45;2.90;99.90
58582;DHT22;44361;51.476;5.700;2024-03-06T02:41:11;2.90;99.90
58582;DHT22;44361;51.476;5.700;2024-03-06T02:43:37;2.80;99.90
58582;DHT22;44361;51.476;5.700;2024-03-06T02:46:03;2.80;99.90
58582;DHT22;44361;51.476;5.700;2024-03-06T02:48:30;2.80;99.90
58582;DHT22;44361;51.476;5.700;2024-03-06T02:50:55;2.70;99.90
58582;DHT22;44361;51.476;5.700;2024-03-06T02:53:21;2.70;99.90
58582;DHT22;44361;51.476;5.700;2024-03-06T02:55:47;2.70;99.90
58582;DHT22;44361;51.476;5.700;2024-03-06T02:58:13;2.70;99.90
58582;DHT22;44361;51.476;5.700;2024-03-06T03:00:42;2.60;99.90
58582;DHT22;44361;51.476;5.700;2024-03-06T03:03:08;2.60;99.90
58582;DHT22;44361;51.476;5.700;2024-03-06T03:05:33;2.60;99.90
58582;DHT22;44361;51.476;5.700;2024-03-06T03:07:59;2.60;99.90
58582;DHT22;44361;51.476;5.700;2024-03-06T03:10:25;2.50;99.90
58582;DHT22;44361;51.476;5.700;2024-03-06T03:12:51;2.50;99.90
58582;DHT22;44361;51.476;5.700;2024-03-06T03:15:17;2.60;99.90
58582;DHT22;44361;51.476;5.700;2024-03-06T03:17:42;2.50;99.90
58582;DHT22;44361;51.476;5.700;2024-03-06T03:20:08;2.50;99.90
58582;DHT22;44361;51.476;5.700;2024-03-06T03:22:38;2.40;99.90
58582;DHT22;44361;51.476;5.700;2024-03-06T03:25:06;2.40;99.90
58582;DHT22;44361;51.476;5.700;2024-03-06T03:27:32;2.40;99.90
58582;DHT22;44361;51.476;5.700;2024-03-06T03:29:58;2.40;99.90
58582;DHT22;44361;51.476;5.700;2024-03-06T03:32:24;2.40;99.90
58582;DHT22;44361;51.476;5.700;2024-03-06T03:34:49;2.40;99.90
58582;DHT22;44361;51.476;5.700;2024-03-06T03:37:15;2.50;99.90
58582;DHT22;44361;51.476;5.700;2024-03-06T03:39:41;2.50;99.90
58582;DHT22;44361;51.476;5.700;2024-03-06T03:42:07;2.50;99.90
58582;DHT22;44361;51.476;5.700;2024-03-06T03:44:33;2.50;99.90
58582;DHT22;44361;51.476;5.700;2024-03-06T03:46:59;2.40;99.90
58582;DHT22;44361;51.476;5.700;2024-03-06T03:49:24;2.40;99.90
58582;DHT22;44361;51.476;5.700;2024-03-06T03:51:50;2.40;99.90
58582;DHT22;44361;51.476;5.700;2024-03-06T03:54:15;2.30;99.90
58582;DHT22;44361;51.476;5.700;2024-03-06T03:56:41;2.20;99.90
58582;DHT22;44361;51.476;5.700;2024-03-06T03:59:06;2.20;99.90
58582;DHT22;44361;51.476;5.700;2024-03-06T04:01:32;2.20;99.90
58582;DHT22;44361;51.476;5.700;2024-03-06T04:03:58;2.10;99.90
58582;DHT22;44361;51.476;5.700;2024-03-06T04:06:23;2.10;99.90
58582;DHT22;44361;51.476;5.700;2024-03-06T04:08:49;2.10;99.90
58582;DHT22;44361;51.476;5.700;2024-03-06T04:11:14;2.00;99.90
58582;DHT22;44361;51.476;5.700;2024-03-06T04:13:40;2.00;99.90
58582;DHT22;44361;51.476;5.700;2024-03-06T04:16:06;2.00;99.90
58582;DHT22;44361;51.476;5.700;2024-03-06T04:18:32;2.00;99.90
58582;DHT22;44361;51.476;5.700;2024-03-06T04:21:04;1.90;99.90
58582;DHT22;44361;51.476;5.700;2024-03-06T04:23:30;1.90;99.90
58582;DHT22;44361;51.476;5.700;2024-03-06T04:25:56;1.90;99.90
58582;DHT22;44361;51.476;5.700;2024-03-06T04:28:22;1.90;99.90
58582;DHT22;44361;51.476;5.700;2024-03-06T04:30:47;2.00;99.90
58582;DHT22;44361;51.476;5.700;2024-03-06T04:33:13;2.00;99.90
58582;DHT22;44361;51.476;5.700;2024-03-06T04:35:40;2.00;99.90
58582;DHT22;44361;51.476;5.700;2024-03-06T04:38:06;2.00;99.90
58582;DHT22;44361;51.476;5.700;2024-03-06T04:40:32;2.00;99.90
58582;DHT22;44361;51.476;5.700;2024-03-06T04:42:58;2.00;99.90
58582;DHT22;44361;51.476;5.700;2024-03-06T04:45:23;2.00;99.90
58582;DHT22;44361;51.476;5.700;2024-03-06T04:47:49;2.00;99.90
58582;DHT22;44361;51.476;5.700;2024-03-06T04:50:15;2.00;99.90
58582;DHT22;44361;51.476;5.700;2024-03-06T04:52:41;1.90;99.90
58582;DHT22;44361;51.476;5.700;2024-03-06T04:55:07;1.90;99.90
58582;DHT22;44361;51.476;5.700;2024-03-06T04:57:36;1.90;99.90
58582;DHT22;44361;51.476;5.700;2024-03-06T05:00:01;2.00;99.90
58582;DHT22;44361;51.476;5.700;2024-03-06T05:02:31;2.00;99.90
58582;DHT22;44361;51.476;5.700;2024-03-06T05:05:00;2.00;99.90
58582;DHT22;44361;51.476;5.700;2024-03-06T05:07:27;2.00;99.90
58582;DHT22;44361;51.476;5.700;2024-03-06T05:09:53;1.90;99.90
58582;DHT22;44361;51.476;5.700;2024-03-06T05:12:19;1.90;99.90
58582;DHT22;44361;51.476;5.700;2024-03-06T05:14:44;1.90;99.90
58582;DHT22;44361;51.476;5.700;2024-03-06T05:17:10;1.90;99.90
58582;DHT22;44361;51.476;5.700;2024-03-06T05:19:36;1.80;99.90
58582;DHT22;44361;51.476;5.700;2024-03-06T05:22:04;1.90;99.90
58582;DHT22;44361;51.476;5.700;2024-03-06T05:24:30;1.90;99.90
58582;DHT22;44361;51.476;5.700;2024-03-06T05:26:56;1.90;99.90
58582;DHT22;44361;51.476;5.700;2024-03-06T05:29:22;1.90;99.90
58582;DHT22;44361;51.476;5.700;2024-03-06T05:31:47;1.80;99.90
58582;DHT22;44361;51.476;5.700;2024-03-06T05:34:13;1.70;99.90
58582;DHT22;44361;51.476;5.700;2024-03-06T05:36:38;1.70;99.90
58582;DHT22;44361;51.476;5.700;2024-03-06T05:39:04;1.70;99.90
58582;DHT22;44361;51.476;5.700;2024-03-06T05:41:32;1.60;99.90
58582;DHT22;44361;51.476;5.700;2024-03-06T05:43:58;1.60;99.90
58582;DHT22;44361;51.476;5.700;2024-03-06T05:46:24;1.60;99.90
58582;DHT22;44361;51.476;5.700;2024-03-06T05:48:50;1.60;99.90
58582;DHT22;44361;51.476;5.700;2024-03-06T05:51:17;1.50;99.90
58582;DHT22;44361;51.476;5.700;2024-03-06T05:53:43;1.50;99.90
58582;DHT22;44361;51.476;5.700;2024-03-06T05:56:09;1.50;99.90
58582;DHT22;44361;51.476;5.700;2024-03-06T05:58:35;1.50;99.90
58582;DHT22;44361;51.476;5.700;2024-03-06T06:01:01;1.30;99.90
58582;DHT22;44361;51.476;5.700;2024-03-06T06:03:29;1.30;99.90
58582;DHT22;44361;51.476;5.700;2024-03-06T06:05:55;1.30;99.90
58582;DHT22;44361;51.476;5.700;2024-03-06T06:08:21;1.20;99.90
58582;DHT22;44361;51.476;5.700;2024-03-06T06:10:46;1.20;99.90
58582;DHT22;44361;51.476;5.700;2024-03-06T06:13:12;1.20;99.90
58582;DHT22;44361;51.476;5.700;2024-03-06T06:15:38;1.20;99.90
58582;DHT22;44361;51.476;5.700;2024-03-06T06:18:04;1.20;99.90
58582;DHT22;44361;51.476;5.700;2024-03-06T06:20:29;1.20;99.90
58582;DHT22;44361;51.476;5.700;2024-03-06T06:22:55;1.20;99.90
58582;DHT22;44361;51.476;5.700;2024-03-06T06:25:22;1.20;99.90
58582;DHT22;44361;51.476;5.700;2024-03-06T06:27:47;1.20;99.90
58582;DHT22;44361;51.476;5.700;2024-03-06T06:30:15;1.20;99.90
58582;DHT22;44361;51.476;5.700;2024-03-06T06:32:41;1.30;99.90
58582;DHT22;44361;51.476;5.700;2024-03-06T06:35:07;1.30;99.90
58582;DHT22;44361;51.476;5.700;2024-03-06T06:37:33;1.30;99.90
58582;DHT22;44361;51.476;5.700;2024-03-06T06:39:59;1.30;99.90
58582;DHT22;44361;51.476;5.700;2024-03-06T06:42:25;1.40;99.90
58582;DHT22;44361;51.476;5.700;2024-03-06T06:44:51;1.40;99.90
58582;DHT22;44361;51.476;5.700;2024-03-06T06:47:17;1.50;99.90
58582;DHT22;44361;51.476;5.700;2024-03-06T06:49:42;1.50;99.90
58582;DHT22;44361;51.476;5.700;2024-03-06T06:52:08;1.40;99.90
58582;DHT22;44361;51.476;5.700;2024-03-06T06:54:33;1.60;99.90
58582;DHT22;44361;51.476;5.700;2024-03-06T06:56:59;1.60;99.90
58582;DHT22;44361;51.476;5.700;2024-03-06T06:59:25;1.70;99.90
58582;DHT22;44361;51.476;5.700;2024-03-06T07:01:50;1.80;99.90
58582;DHT22;44361;51.476;5.700;2024-03-06T07:04:16;1.90;99.90
58582;DHT22;44361;51.476;5.700;2024-03-06T07:06:45;1.90;99.90
58582;DHT22;44361;51.476;5.700;2024-03-06T07:09:12;2.00;99.90
58582;DHT22;44361;51.476;5.700;2024-03-06T07:11:37;2.20;99.90
58582;DHT22;44361;51.476;5.700;2024-03-06T07:14:03;2.20;99.90
58582;DHT22;44361;51.476;5.700;2024-03-06T07:16:28;2.30;99.90
58582;DHT22;44361;51.476;5.700;2024-03-06T07:18:54;2.20;99.90
58582;DHT22;44361;51.476;5.700;2024-03-06T07:21:19;2.20;99.90
58582;DHT22;44361;51.476;5.700;2024-03-06T07:23:45;2.30;99.90
58582;DHT22;44361;51.476;5.700;2024-03-06T07:26:11;2.30;99.90
58582;DHT22;44361;51.476;5.700;2024-03-06T07:28:36;2.50;99.90
58582;DHT22;44361;51.476;5.700;2024-03-06T07:31:03;2.70;99.90
58582;DHT22;44361;51.476;5.700;2024-03-06T07:33:30;2.80;99.90
58582;DHT22;44361;51.476;5.700;2024-03-06T07:35:56;2.80;99.90
58582;DHT22;44361;51.476;5.700;2024-03-06T07:38:22;2.80;99.90
58582;DHT22;44361;51.476;5.700;2024-03-06T07:40:48;2.90;99.90
58582;DHT22;44361;51.476;5.700;2024-03-06T07:43:14;3.00;99.90
58582;DHT22;44361;51.476;5.700;2024-03-06T07:45:40;3.40;99.90
58582;DHT22;44361;51.476;5.700;2024-03-06T07:48:06;3.70;99.90
58582;DHT22;44361;51.476;5.700;2024-03-06T07:50:31;4.10;99.90
58582;DHT22;44361;51.476;5.700;2024-03-06T07:52:57;4.60;99.90
58582;DHT22;44361;51.476;5.700;2024-03-06T07:55:23;4.90;99.90
58582;DHT22;44361;51.476;5.700;2024-03-06T07:57:48;4.90;99.90
58582;DHT22;44361;51.476;5.700;2024-03-06T08:00:14;5.00;99.90
58582;DHT22;44361;51.476;5.700;2024-03-06T08:02:40;5.10;99.90
58582;DHT22;44361;51.476;5.700;2024-03-06T08:05:11;5.10;99.90
58582;DHT22;44361;51.476;5.700;2024-03-06T08:07:38;5.10;99.90
58582;DHT22;44361;51.476;5.700;2024-03-06T08:10:10;5.00;99.90
58582;DHT22;44361;51.476;5.700;2024-03-06T08:12:42;5.00;99.90
58582;DHT22;44361;51.476;5.700;2024-03-06T08:15:10;5.00;99.90
58582;DHT22;44361;51.476;5.700;2024-03-06T08:17:39;5.10;99.90
58582;DHT22;44361;51.476;5.700;2024-03-06T08:20:07;5.20;99.90
58582;DHT22;44361;51.476;5.700;2024-03-06T08:22:38;5.20;99.90
58582;DHT22;44361;51.476;5.700;2024-03-06T08:25:11;5.30;99.90
58582;DHT22;44361;51.476;5.700;2024-03-06T08:27:39;5.30;99.90
58582;DHT22;44361;51.476;5.700;2024-03-06T08:30:05;5.40;99.90
58582;DHT22;44361;51.476;5.700;2024-03-06T08:32:32;5.50;99.90
58582;DHT22;44361;51.476;5.700;2024-03-06T08:35:03;5.50;99.90
58582;DHT22;44361;51.476;5.700;2024-03-06T08:37:31;5.60;99.90
58582;DHT22;44361;51.476;5.700;2024-03-06T08:39:59;5.70;99.90
58582;DHT22;44361;51.476;5.700;2024-03-06T08:42:24;5.80;99.90
58582;DHT22;44361;51.476;5.700;2024-03-06T08:44:50;6.00;99.90
58582;DHT22;44361;51.476;5.700;2024-03-06T08:47:16;6.10;99.90
58582;DHT22;44361;51.476;5.700;2024-03-06T08:49:41;6.10;99.90
58582;DHT22;44361;51.476;5.700;2024-03-06T08:52:07;6.10;99.90
58582;DHT22;44361;51.476;5.700;2024-03-06T08:54:35;6.20;99.90
58582;DHT22;44361;51.476;5.700;2024-03-06T08:57:01;6.40;99.90
58582;DHT22;44361;51.476;5.700;2024-03-06T08:59:28;6.60;99.90
58582;DHT22;44361;51.476;5.700;2024-03-06T09:01:55;6.70;99.90
58582;DHT22;44361;51.476;5.700;2024-03-06T09:04:24;6.80;99.90
58582;DHT22;44361;51.476;5.700;2024-03-06T09:06:49;6.90;99.90
58582;DHT22;44361;51.476;5.700;2024-03-06T09:09:15;7.00;99.90
58582;DHT22;44361;51.476;5.700;2024-03-06T09:11:41;7.10;99.90
58582;DHT22;44361;51.476;5.700;2024-03-06T09:14:10;7.10;99.90
58582;DHT22;44361;51.476;5.700;2024-03-06T09:16:36;7.20;99.90
58582;DHT22;44361;51.476;5.700;2024-03-06T09:19:01;7.30;99.90
58582;DHT22;44361;51.476;5.700;2024-03-06T09:21:27;7.30;99.90
58582;DHT22;44361;51.476;5.700;2024-03-06T09:23:53;7.40;99.90
58582;DHT22;44361;51.476;5.700;2024-03-06T09:26:19;7.50;99.90
58582;DHT22;44361;51.476;5.700;2024-03-06T09:28:45;7.60;99.90
58582;DHT22;44361;51.476;5.700;2024-03-06T09:31:11;7.50;99.90
58582;DHT22;44361;51.476;5.700;2024-03-06T09:33:39;7.60;99.90
58582;DHT22;44361;51.476;5.700;2024-03-06T09:36:05;7.70;99.90
58582;DHT22;44361;51.476;5.700;2024-03-06T09:38:31;7.80;99.90
58582;DHT22;44361;51.476;5.700;2024-03-06T09:40:57;7.80;99.90
58582;DHT22;44361;51.476;5.700;2024-03-06T09:43:22;8.00;99.90
58582;DHT22;44361;51.476;5.700;2024-03-06T09:45:50;8.00;99.90
58582;DHT22;44361;51.476;5.700;2024-03-06T09:48:18;8.10;99.90
58582;DHT22;44361;51.476;5.700;2024-03-06T09:50:46;8.20;99.90
58582;DHT22;44361;51.476;5.700;2024-03-06T09:53:16;8.30;99.90
58582;DHT22;44361;51.476;5.700;2024-03-06T09:55:42;8.40;99.90
58582;DHT22;44361;51.476;5.700;2024-03-06T09:58:08;8.40;99.90
58582;DHT22;44361;51.476;5.700;2024-03-06T10:00:35;8.40;99.90
58582;DHT22;44361;51.476;5.700;2024-03-06T10:03:02;8.60;99.90
58582;DHT22;44361;51.476;5.700;2024-03-06T10:05:31;8.70;99.90
58582;DHT22;44361;51.476;5.700;2024-03-06T10:07:58;8.80;99.90
58582;DHT22;44361;51.476;5.700;2024-03-06T10:10:25;8.80;99.90
58582;DHT22;44361;51.476;5.700;2024-03-06T10:12:50;8.90;99.90
58582;DHT22;44361;51.476;5.700;2024-03-06T10:15:16;8.90;99.90
58582;DHT22;44361;51.476;5.700;2024-03-06T10:17:42;9.10;99.90
58582;DHT22;44361;51.476;5.700;2024-03-06T10:20:21;9.20;99.90
58582;DHT22;44361;51.476;5.700;2024-03-06T10:22:51;9.20;99.90
58582;DHT22;44361;51.476;5.700;2024-03-06T10:25:21;9.20;99.90
58582;DHT22;44361;51.476;5.700;2024-03-06T10:28:08;9.30;99.90
58582;DHT22;44361;51.476;5.700;2024-03-06T10:30:41;9.50;99.90
58582;DHT22;44361;51.476;5.700;2024-03-06T10:33:08;9.40;99.90
58582;DHT22;44361;51.476;5.700;2024-03-06T10:35:35;9.50;99.90
58582;DHT22;44361;51.476;5.700;2024-03-06T10:38:04;9.50;99.90
58582;DHT22;44361;51.476;5.700;2024-03-06T10:40:35;9.60;99.90
58582;DHT22;44361;51.476;5.700;2024-03-06T10:43:02;9.70;99.90
58582;DHT22;44361;51.476;5.700;2024-03-06T10:48:01;9.80;99.90
58582;DHT22;44361;51.476;5.700;2024-03-06T10:50:27;9.90;99.90
58582;DHT22;44361;51.476;5.700;2024-03-06T10:52:53;10.10;99.90
58582;DHT22;44361;51.476;5.700;2024-03-06T10:55:21;10.20;99.90
58582;DHT22;44361;51.476;5.700;2024-03-06T10:57:47;10.40;99.90
58582;DHT22;44361;51.476;5.700;2024-03-06T11:00:14;10.50;99.90
58582;DHT22;44361;51.476;5.700;2024-03-06T11:02:46;10.60;99.90
58582;DHT22;44361;51.476;5.700;2024-03-06T11:05:14;10.70;99.90
58582;DHT22;44361;51.476;5.700;2024-03-06T11:07:40;10.60;99.90
58582;DHT22;44361;51.476;5.700;2024-03-06T11:10:06;10.40;99.90
58582;DHT22;44361;51.476;5.700;2024-03-06T11:12:36;10.30;99.90
58582;DHT22;44361;51.476;5.700;2024-03-06T11:15:09;10.40;99.90
58582;DHT22;44361;51.476;5.700;2024-03-06T11:17:36;10.50;99.90
58582;DHT22;44361;51.476;5.700;2024-03-06T11:30:51;10.60;99.90
58582;DHT22;44361;51.476;5.700;2024-03-06T11:33:20;10.70;99.90
58582;DHT22;44361;51.476;5.700;2024-03-06T11:36:14;10.60;99.90
58582;DHT22;44361;51.476;5.700;2024-03-06T11:38:42;10.60;99.90
58582;DHT22;44361;51.476;5.700;2024-03-06T11:41:09;11.00;99.90
58582;DHT22;44361;51.476;5.700;2024-03-06T11:43:42;11.20;99.90
58582;DHT22;44361;51.476;5.700;2024-03-06T11:46:09;11.50;99.90
58582;DHT22;44361;51.476;5.700;2024-03-06T11:48:36;11.60;99.90
58582;DHT22;44361;51.476;5.700;2024-03-06T11:51:02;11.70;99.90
58582;DHT22;44361;51.476;5.700;2024-03-06T11:53:30;11.80;99.90
58582;DHT22;44361;51.476;5.700;2024-03-06T11:55:56;11.50;99.90
58582;DHT22;44361;51.476;5.700;2024-03-06T11:58:22;11.30;99.80
58582;DHT22;44361;51.476;5.700;2024-03-06T12:00:48;11.40;99.90
58582;DHT22;44361;51.476;5.700;2024-03-06T12:03:14;11.90;99.90
58582;DHT22;44361;51.476;5.700;2024-03-06T12:05:39;12.20;98.70
58582;DHT22;44361;51.476;5.700;2024-03-06T12:08:06;12.20;98.70
58582;DHT22;44361;51.476;5.700;2024-03-06T12:10:37;12.00;97.90
58582;DHT22;44361;51.476;5.700;2024-03-06T12:13:03;11.60;98.20
58582;DHT22;44361;51.476;5.700;2024-03-06T12:15:29;11.30;98.70
58582;DHT22;44361;51.476;5.700;2024-03-06T12:17:55;11.10;99.00
58582;DHT22;44361;51.476;5.700;2024-03-06T12:20:20;11.00;99.90
58582;DHT22;44361;51.476;5.700;2024-03-06T12:22:50;10.90;99.60
58582;DHT22;44361;51.476;5.700;2024-03-06T12:25:24;10.90;99.90
58582;DHT22;44361;51.476;5.700;2024-03-06T12:27:54;10.80;99.30
58582;DHT22;44361;51.476;5.700;2024-03-06T12:30:21;10.70;99.40
58582;DHT22;44361;51.476;5.700;2024-03-06T12:32:58;10.70;99.70
58582;DHT22;44361;51.476;5.700;2024-03-06T12:35:24;10.70;99.90
58582;DHT22;44361;51.476;5.700;2024-03-06T12:37:51;10.60;99.60
58582;DHT22;44361;51.476;5.700;2024-03-06T12:40:18;10.60;99.00
58582;DHT22;44361;51.476;5.700;2024-03-06T12:42:44;10.70;99.00
58582;DHT22;44361;51.476;5.700;2024-03-06T12:45:12;10.80;99.30
58582;DHT22;44361;51.476;5.700;2024-03-06T12:47:41;10.90;99.00
58582;DHT22;44361;51.476;5.700;2024-03-06T12:50:07;10.90;99.20
58582;DHT22;44361;51.476;5.700;2024-03-06T12:52:34;11.20;97.90
58582;DHT22;44361;51.476;5.700;2024-03-06T12:55:00;11.50;97.20
58582;DHT22;44361;51.476;5.700;2024-03-06T12:57:26;11.80;96.30
58582;DHT22;44361;51.476;5.700;2024-03-06T12:59:53;12.00;95.50
58582;DHT22;44361;51.476;5.700;2024-03-06T13:02:18;12.20;95.40
58582;DHT22;44361;51.476;5.700;2024-03-06T13:04:44;12.40;95.80
58582;DHT22;44361;51.476;5.700;2024-03-06T13:07:11;12.40;95.30
58582;DHT22;44361;51.476;5.700;2024-03-06T13:09:36;12.60;93.70
58582;DHT22;44361;51.476;5.700;2024-03-06T13:12:03;12.60;92.00
58582;DHT22;44361;51.476;5.700;2024-03-06T13:14:29;12.60;91.50
58582;DHT22;44361;51.476;5.700;2024-03-06T13:16:55;12.80;90.40
58582;DHT22;44361;51.476;5.700;2024-03-06T13:19:21;12.70;91.00
58582;DHT22;44361;51.476;5.700;2024-03-06T13:21:47;12.70;91.20
58582;DHT22;44361;51.476;5.700;2024-03-06T13:24:13;12.50;90.70
58582;DHT22;44361;51.476;5.700;2024-03-06T13:26:39;12.20;91.20
58582;DHT22;44361;51.476;5.700;2024-03-06T13:29:06;12.00;91.30
58582;DHT22;44361;51.476;5.700;2024-03-06T13:31:32;11.80;91.80
58582;DHT22;44361;51.476;5.700;2024-03-06T13:34:00;11.70;91.70
58582;DHT22;44361;51.476;5.700;2024-03-06T13:36:25;11.70;91.50
58582;DHT22;44361;51.476;5.700;2024-03-06T13:38:51;11.70;91.60
58582;DHT22;44361;51.476;5.700;2024-03-06T13:41:17;11.80;91.60
58582;DHT22;44361;51.476;5.700;2024-03-06T13:43:43;12.00;91.50
58582;DHT22;44361;51.476;5.700;2024-03-06T13:46:09;11.90;90.40
58582;DHT22;44361;51.476;5.700;2024-03-06T13:48:34;11.90;90.50
58582;DHT22;44361;51.476;5.700;2024-03-06T13:51:01;11.90;90.70
58582;DHT22;44361;51.476;5.700;2024-03-06T13:53:27;12.10;91.50
58582;DHT22;44361;51.476;5.700;2024-03-06T13:55:52;12.00;88.90
58582;DHT22;44361;51.476;5.700;2024-03-06T13:58:18;12.00;90.00
58582;DHT22;44361;51.476;5.700;2024-03-06T14:00:44;12.10;90.00
58582;DHT22;44361;51.476;5.700;2024-03-06T14:03:10;12.10;89.30
58582;DHT22;44361;51.476;5.700;2024-03-06T14:05:37;12.10;90.20
58582;DHT22;44361;51.476;5.700;2024-03-06T14:08:05;12.00;89.40
58582;DHT22;44361;51.476;5.700;2024-03-06T14:10:31;12.10;89.20
58582;DHT22;44361;51.476;5.700;2024-03-06T14:13:00;12.30;90.70
58582;DHT22;44361;51.476;5.700;2024-03-06T14:15:26;12.50;90.10
58582;DHT22;44361;51.476;5.700;2024-03-06T14:17:52;12.50;90.50
58582;DHT22;44361;51.476;5.700;2024-03-06T14:20:21;12.50;90.40
58582;DHT22;44361;51.476;5.700;2024-03-06T14:22:47;12.50;90.40
58582;DHT22;44361;51.476;5.700;2024-03-06T14:25:14;12.80;90.70
58582;DHT22;44361;51.476;5.700;2024-03-06T14:27:40;12.70;90.30
58582;DHT22;44361;51.476;5.700;2024-03-06T14:30:12;12.80;90.60
58582;DHT22;44361;51.476;5.700;2024-03-06T14:32:41;12.70;91.10
58582;DHT22;44361;51.476;5.700;2024-03-06T14:35:07;12.50;91.00
58582;DHT22;44361;51.476;5.700;2024-03-06T14:37:33;12.30;91.60
58582;DHT22;44361;51.476;5.700;2024-03-06T14:40:02;12.20;91.60
58582;DHT22;44361;51.476;5.700;2024-03-06T14:42:34;12.00;92.00
58582;DHT22;44361;51.476;5.700;2024-03-06T14:45:03;11.80;92.40
58582;DHT22;44361;51.476;5.700;2024-03-06T14:47:32;11.60;92.40
58582;DHT22;44361;51.476;5.700;2024-03-06T14:49:58;11.50;92.20
58582;DHT22;44361;51.476;5.700;2024-03-06T14:52:27;11.50;92.70
58582;DHT22;44361;51.476;5.700;2024-03-06T14:54:55;11.50;92.60
58582;DHT22;44361;51.476;5.700;2024-03-06T14:57:21;11.50;93.20
58582;DHT22;44361;51.476;5.700;2024-03-06T14:59:49;11.50;92.60
58582;DHT22;44361;51.476;5.700;2024-03-06T15:02:17;11.70;92.90
58582;DHT22;44361;51.476;5.700;2024-03-06T15:04:43;11.80;92.80
58582;DHT22;44361;51.476;5.700;2024-03-06T15:07:09;12.00;92.20
58582;DHT22;44361;51.476;5.700;2024-03-06T15:09:35;12.10;92.10
58582;DHT22;44361;51.476;5.700;2024-03-06T15:12:04;12.20;92.10
58582;DHT22;44361;51.476;5.700;2024-03-06T15:14:30;12.20;91.80
58582;DHT22;44361;51.476;5.700;2024-03-06T15:16:56;12.20;91.30
58582;DHT22;44361;51.476;5.700;2024-03-06T15:19:22;12.20;90.60
58582;DHT22;44361;51.476;5.700;2024-03-06T15:21:47;12.30;90.70
58582;DHT22;44361;51.476;5.700;2024-03-06T15:24:13;12.30;90.20
58582;DHT22;44361;51.476;5.700;2024-03-06T15:26:39;12.40;93.10
58582;DHT22;44361;51.476;5.700;2024-03-06T15:29:05;12.30;94.30
58582;DHT22;44361;51.476;5.700;2024-03-06T15:31:31;12.30;94.30
58582;DHT22;44361;51.476;5.700;2024-03-06T15:33:57;12.30;94.70
58582;DHT22;44361;51.476;5.700;2024-03-06T15:36:23;12.10;94.60
58582;DHT22;44361;51.476;5.700;2024-03-06T15:38:48;12.10;94.40
58582;DHT22;44361;51.476;5.700;2024-03-06T15:41:14;11.90;94.80
58582;DHT22;44361;51.476;5.700;2024-03-06T15:43:39;11.80;95.10
58582;DHT22;44361;51.476;5.700;2024-03-06T15:46:06;11.80;95.50
58582;DHT22;44361;51.476;5.700;2024-03-06T15:48:31;11.70;95.90
58582;DHT22;44361;51.476;5.700;2024-03-06T15:50:58;11.70;96.10